createdAt,value
2022-08-22T00:00:47.823Z,61.70
2022-08-22T00:04:04.665Z,61.40
2022-08-22T00:07:22.776Z,61.60
2022-08-22T00:10:39.691Z,61.90
2022-08-22T00:14:02.183Z,62.10
2022-08-22T00:17:36.138Z,62.00
2022-08-22T00:21:01.760Z,61.80
2022-08-22T00:24:21.963Z,60.10
2022-08-22T00:27:36.522Z,62.30
2022-08-22T00:30:59.402Z,62.40
2022-08-22T00:34:08.507Z,63.20
2022-08-22T00:37:24.270Z,62.10
2022-08-22T00:40:47.780Z,62.20
2022-08-22T00:44:31.859Z,62.10
2022-08-22T00:47:52.641Z,62.30
2022-08-22T00:51:39.574Z,62.30
2022-08-22T00:55:16.042Z,62.40
2022-08-22T00:58:53.099Z,62.50
2022-08-22T01:02:14.568Z,62.60
2022-08-22T01:05:49.238Z,62.20
2022-08-22T01:09:05.911Z,62.20
2022-08-22T01:12:34.215Z,62.40
2022-08-22T01:15:39.625Z,62.40
2022-08-22T01:19:09.341Z,62.70
2022-08-22T01:23:06.793Z,62.90
2022-08-22T01:26:58.785Z,63.20
2022-08-22T01:30:32.305Z,63.30
2022-08-22T01:34:28.435Z,63.50
2022-08-22T01:38:04.913Z,63.60
2022-08-22T01:41:42.304Z,63.70
2022-08-22T01:45:19.687Z,63.90
2022-08-22T01:48:35.582Z,64.10
2022-08-22T01:51:49.616Z,64.30
2022-08-22T01:55:00.216Z,64.00
2022-08-22T01:58:16.537Z,64.20
2022-08-22T02:01:37.117Z,64.20
2022-08-22T02:04:49.307Z,64.00
2022-08-22T02:08:02.143Z,64.30
2022-08-22T02:11:10.599Z,64.70
2022-08-22T02:14:41.701Z,64.50
2022-08-22T02:18:11.925Z,64.80
2022-08-22T02:21:25.316Z,64.90
2022-08-22T02:24:47.288Z,65.30
2022-08-22T02:28:03.513Z,65.00
2022-08-22T02:31:16.672Z,65.20
2022-08-22T02:34:39.581Z,65.40
2022-08-22T02:38:00.301Z,64.70
2022-08-22T02:41:19.445Z,64.70
2022-08-22T02:44:34.627Z,64.70
2022-08-22T02:47:52.173Z,64.60
2022-08-22T02:51:04.372Z,64.10
2022-08-22T02:54:19.002Z,64.20
2022-08-22T02:57:39.424Z,63.90
2022-08-22T03:00:50.484Z,64.30
2022-08-22T03:04:32.095Z,64.50
2022-08-22T03:07:44.896Z,64.80
2022-08-22T03:11:00.394Z,64.80
2022-08-22T03:14:12.964Z,64.90
2022-08-22T03:17:27.760Z,65.00
2022-08-22T03:20:46.740Z,65.20
2022-08-22T03:24:01.029Z,65.50
2022-08-22T03:27:14.339Z,65.60
2022-08-22T03:30:42.373Z,65.70
2022-08-22T03:34:18.810Z,65.70
2022-08-22T03:37:33.067Z,65.80
2022-08-22T03:40:57.765Z,65.90
2022-08-22T03:44:31.841Z,66.20
2022-08-22T03:48:00.025Z,66.10
2022-08-22T03:51:31.094Z,65.80
2022-08-22T03:55:22.023Z,64.80
2022-08-22T03:59:17.570Z,65.80
2022-08-22T04:02:51.737Z,65.60
2022-08-22T04:06:36.703Z,65.70
2022-08-22T04:10:29.757Z,65.80
2022-08-22T04:14:13.945Z,65.80
2022-08-22T04:17:53.172Z,66.00
2022-08-22T04:21:50.506Z,66.10
2022-08-22T04:25:07.622Z,66.10
2022-08-22T04:28:23.781Z,67.30
2022-08-22T04:31:35.019Z,66.00
2022-08-22T04:34:43.726Z,65.90
2022-08-22T04:37:56.689Z,65.90
2022-08-22T04:41:09.290Z,65.80
2022-08-22T04:44:20.438Z,65.80
2022-08-22T04:47:33.010Z,65.80
2022-08-22T04:50:44.814Z,64.90
2022-08-22T04:54:31.074Z,65.90
2022-08-22T04:57:50.580Z,66.10
2022-08-22T05:01:00.678Z,66.40
2022-08-22T05:04:10.681Z,67.20
2022-08-22T05:07:20.761Z,68.70
2022-08-22T05:10:33.421Z,69.40
2022-08-22T05:13:43.009Z,69.30
2022-08-22T05:16:54.179Z,68.90
2022-08-22T05:20:03.542Z,67.10
2022-08-22T05:23:17.859Z,68.60
2022-08-22T05:26:23.438Z,67.10
2022-08-22T05:29:32.782Z,66.20
2022-08-22T05:32:51.578Z,65.00
2022-08-22T05:36:03.591Z,65.60
2022-08-22T05:39:14.339Z,60.80
2022-08-22T05:42:32.666Z,60.70
2022-08-22T05:45:37.565Z,60.10
2022-08-22T05:48:49.335Z,59.10
2022-08-22T05:52:15.919Z,57.50
2022-08-22T05:55:29.462Z,55.10
2022-08-22T05:58:52.680Z,54.70
2022-08-22T06:02:07.017Z,53.20
2022-08-22T06:05:12.364Z,53.20
2022-08-22T06:08:23.926Z,53.00
2022-08-22T06:11:36.854Z,52.40
2022-08-22T06:14:54.965Z,52.10
2022-08-22T06:18:03.298Z,52.00
2022-08-22T06:21:12.714Z,50.80
2022-08-22T06:24:23.694Z,50.60
2022-08-22T06:27:31.239Z,48.40
2022-08-22T06:30:40.060Z,48.30
2022-08-22T06:33:53.994Z,47.70
2022-08-22T06:37:06.164Z,48.70
2022-08-22T06:40:14.503Z,46.30
2022-08-22T06:43:19.656Z,45.70
2022-08-22T06:46:29.068Z,46.00
2022-08-22T06:49:37.184Z,44.20
2022-08-22T06:52:53.671Z,43.80
2022-08-22T06:56:02.737Z,42.30
2022-08-22T06:59:13.634Z,41.50
2022-08-22T07:02:28.501Z,42.00
2022-08-22T07:05:39.122Z,41.00
2022-08-22T07:08:43.230Z,40.80
2022-08-22T07:11:46.812Z,41.40
2022-08-22T07:14:55.211Z,40.70
2022-08-22T07:18:05.116Z,38.30
2022-08-22T07:21:09.596Z,39.10
2022-08-22T07:24:23.115Z,39.30
2022-08-22T07:27:54.011Z,38.50
2022-08-22T07:31:01.540Z,38.50
2022-08-22T07:34:35.849Z,38.80
2022-08-22T07:37:59.808Z,37.00
2022-08-22T07:41:13.996Z,38.00
2022-08-22T07:44:19.950Z,37.80
2022-08-22T07:47:29.887Z,39.60
2022-08-22T07:50:42.569Z,37.70
2022-08-22T07:53:50.188Z,38.70
2022-08-22T07:57:01.565Z,38.60
2022-08-22T08:00:15.291Z,38.20
2022-08-22T08:03:21.691Z,39.60
2022-08-22T08:06:29.172Z,38.70
2022-08-22T08:09:36.251Z,39.50
2022-08-22T08:12:52.775Z,39.90
2022-08-22T08:16:10.731Z,39.60
2022-08-22T08:19:17.593Z,40.50
2022-08-22T08:22:26.515Z,40.70
2022-08-22T08:25:53.557Z,40.30
2022-08-22T08:28:59.479Z,40.80
2022-08-22T08:32:03.193Z,40.30
2022-08-22T08:35:14.324Z,40.30
2022-08-22T08:38:26.416Z,40.40
2022-08-22T08:42:05.560Z,39.30
2022-08-22T08:45:58.442Z,38.90
2022-08-22T08:49:36.306Z,39.40
2022-08-22T08:53:19.517Z,39.20
2022-08-22T08:56:39.029Z,39.40
2022-08-22T08:59:55.444Z,38.20
2022-08-22T09:03:15.456Z,38.00
2022-08-22T09:07:06.237Z,38.90
2022-08-22T09:10:52.779Z,38.50
2022-08-22T09:14:17.118Z,38.70
2022-08-22T09:18:01.038Z,38.60
2022-08-22T09:21:51.715Z,39.70
2022-08-22T09:25:24.960Z,40.10
2022-08-22T09:28:39.441Z,39.20
2022-08-22T09:32:00.119Z,39.30
2022-08-22T09:35:16.390Z,38.70
2022-08-22T09:38:47.724Z,38.90
2022-08-22T09:42:03.719Z,39.60
2022-08-22T09:45:51.568Z,40.20
2022-08-22T09:49:07.201Z,41.30
2022-08-22T09:52:44.590Z,39.60
2022-08-22T09:56:15.042Z,41.00
2022-08-22T09:59:26.919Z,41.50
2022-08-22T10:02:43.551Z,42.60
2022-08-22T10:05:58.047Z,42.90
2022-08-22T10:09:09.003Z,43.30
2022-08-22T10:12:24.831Z,43.80
2022-08-22T10:15:39.682Z,44.40
2022-08-22T10:18:55.384Z,45.20
2022-08-22T10:22:34.366Z,44.80
2022-08-22T10:25:44.829Z,45.00
2022-08-22T10:28:55.914Z,43.60
2022-08-22T10:32:16.586Z,43.90
2022-08-22T10:35:33.945Z,43.60
2022-08-22T10:38:47.183Z,42.00
2022-08-22T10:42:16.895Z,42.00
2022-08-22T10:45:35.967Z,42.40
2022-08-22T10:48:49.679Z,42.30
2022-08-22T10:52:14.850Z,42.40
2022-08-22T10:55:28.532Z,42.80
2022-08-22T10:58:39.845Z,42.40
2022-08-22T11:01:59.921Z,42.20
2022-08-22T11:05:35.676Z,42.50
2022-08-22T11:09:05.610Z,42.40
2022-08-22T11:12:26.729Z,43.40
2022-08-22T11:15:59.953Z,42.00
2022-08-22T11:19:39.534Z,41.50
2022-08-22T11:22:58.486Z,41.60
2022-08-22T11:26:33.598Z,40.20
2022-08-22T11:29:56.839Z,40.40
2022-08-22T11:33:20.973Z,40.60
2022-08-22T11:36:42.845Z,40.50
2022-08-22T11:40:11.985Z,39.10
2022-08-22T11:43:41.474Z,40.60
2022-08-22T11:46:52.156Z,40.20
2022-08-22T11:50:13.667Z,40.60
2022-08-22T11:53:28.886Z,40.20
2022-08-22T11:56:40.235Z,40.40
2022-08-22T12:00:11.395Z,39.90
2022-08-22T12:03:35.483Z,39.60
2022-08-22T12:06:56.370Z,40.20
2022-08-22T12:10:06.751Z,40.00
2022-08-22T12:13:34.823Z,39.30
2022-08-22T12:16:49.940Z,38.70
2022-08-22T12:20:16.750Z,39.20
2022-08-22T12:23:56.609Z,38.80
2022-08-22T12:27:33.664Z,38.40
2022-08-22T12:30:48.406Z,38.70
2022-08-22T12:34:12.224Z,39.60
2022-08-22T12:37:30.265Z,39.00
2022-08-22T12:40:53.213Z,39.00
2022-08-22T12:44:12.606Z,38.20
2022-08-22T12:47:37.193Z,37.70
2022-08-22T12:50:52.964Z,38.80
2022-08-22T12:54:28.896Z,38.60
2022-08-22T12:57:50.292Z,37.70
2022-08-22T13:01:05.523Z,37.70
2022-08-22T13:04:32.467Z,37.30
2022-08-22T13:07:40.161Z,37.00
2022-08-22T13:10:51.468Z,36.50
2022-08-22T13:14:01.003Z,37.80
2022-08-22T13:17:24.466Z,37.50
2022-08-22T13:20:35.618Z,37.60
2022-08-22T13:23:46.660Z,37.40
2022-08-22T13:27:00.145Z,37.50
2022-08-22T13:30:12.598Z,39.60
2022-08-22T13:33:27.022Z,37.70
2022-08-22T13:36:35.427Z,37.80
2022-08-22T13:39:43.463Z,36.00
2022-08-22T13:42:54.189Z,37.00
2022-08-22T13:46:02.125Z,37.00
2022-08-22T13:49:13.216Z,36.60
2022-08-22T13:52:30.599Z,37.00
2022-08-22T13:55:49.019Z,37.30
2022-08-22T13:59:00.239Z,37.60
2022-08-22T14:02:18.181Z,37.20
2022-08-22T14:05:29.062Z,37.60
2022-08-22T14:08:38.199Z,37.50
2022-08-22T14:11:55.063Z,37.60
2022-08-22T14:15:02.942Z,37.60
2022-08-22T14:18:15.457Z,36.90
2022-08-22T14:21:41.198Z,36.60
2022-08-22T14:24:55.640Z,36.60
2022-08-22T14:28:06.482Z,37.10
2022-08-22T14:31:15.347Z,37.40
2022-08-22T14:34:21.215Z,37.70
2022-08-22T14:37:30.620Z,38.10
2022-08-22T14:40:38.339Z,38.00
2022-08-22T14:43:54.326Z,38.10
2022-08-22T14:47:15.814Z,37.80
2022-08-22T14:50:43.222Z,38.10
2022-08-22T14:53:46.736Z,38.20
2022-08-22T14:56:54.143Z,38.70
2022-08-22T14:59:57.639Z,39.40
2022-08-22T15:03:25.677Z,39.80
2022-08-22T15:06:37.786Z,40.30
2022-08-22T15:09:50.332Z,40.20
2022-08-22T15:12:59.737Z,40.00
2022-08-22T15:16:17.080Z,39.80
2022-08-22T15:19:28.299Z,40.00
2022-08-22T15:22:32.115Z,40.40
2022-08-22T15:25:41.006Z,40.50
2022-08-22T15:28:53.230Z,40.80
2022-08-22T15:32:03.154Z,41.00
2022-08-22T15:35:12.386Z,40.80
2022-08-22T15:38:36.444Z,41.60
2022-08-22T15:41:46.710Z,41.70
2022-08-22T15:44:56.149Z,42.10
2022-08-22T15:48:04.509Z,42.00
2022-08-22T15:51:14.632Z,42.40
2022-08-22T15:54:25.352Z,42.40
2022-08-22T15:57:34.843Z,42.30
2022-08-22T16:00:45.490Z,42.50
2022-08-22T16:04:00.517Z,42.80
2022-08-22T16:07:36.233Z,43.20
2022-08-22T16:10:44.235Z,43.00
2022-08-22T16:13:48.241Z,42.90
2022-08-22T16:17:01.008Z,43.00
2022-08-22T16:20:52.623Z,42.90
2022-08-22T16:24:34.357Z,42.20
2022-08-22T16:27:57.451Z,42.70
2022-08-22T16:31:21.139Z,42.90
2022-08-22T16:34:28.705Z,43.00
2022-08-22T16:37:50.884Z,42.90
2022-08-22T16:44:39.623Z,42.90
2022-08-22T16:47:56.893Z,43.10
2022-08-22T16:51:15.241Z,43.00
2022-08-22T16:54:44.875Z,43.10
2022-08-22T16:58:06.855Z,43.20
2022-08-22T17:01:23.727Z,43.60
2022-08-22T17:04:44.830Z,45.00
2022-08-22T17:08:09.839Z,43.90
2022-08-22T17:11:36.455Z,45.20
2022-08-22T17:14:52.636Z,44.20
2022-08-22T17:18:24.653Z,44.50
2022-08-22T17:21:38.102Z,44.60
2022-08-22T17:24:47.612Z,44.90
2022-08-22T17:28:11.865Z,44.90
2022-08-22T17:31:30.369Z,45.30
2022-08-22T17:34:45.114Z,44.30
2022-08-22T17:38:07.691Z,44.80
2022-08-22T17:41:30.447Z,45.30
2022-08-22T17:44:48.741Z,45.10
2022-08-22T17:48:03.843Z,46.30
2022-08-22T17:51:25.297Z,45.80
2022-08-22T17:54:40.932Z,45.90
2022-08-22T17:57:52.182Z,45.80
2022-08-22T18:01:03.704Z,46.30
2022-08-22T18:04:20.081Z,46.40
2022-08-22T18:07:50.528Z,47.40
2022-08-22T18:11:04.486Z,47.50
2022-08-22T18:14:11.606Z,46.90
2022-08-22T18:17:21.742Z,46.80
2022-08-22T18:20:37.257Z,46.90
2022-08-22T18:23:46.445Z,47.20
2022-08-22T18:26:59.455Z,45.70
2022-08-22T18:30:16.325Z,47.80
2022-08-22T18:33:32.775Z,48.10
2022-08-22T18:36:47.162Z,48.40
2022-08-22T18:39:59.750Z,48.40
2022-08-22T18:43:17.774Z,48.50
2022-08-22T18:46:44.767Z,49.60
2022-08-22T18:49:54.443Z,48.70
2022-08-22T18:52:59.890Z,48.60
2022-08-22T18:56:14.646Z,48.40
2022-08-22T18:59:50.283Z,48.90
2022-08-22T19:03:15.772Z,49.30
2022-08-22T19:07:05.768Z,49.80
2022-08-22T19:10:41.415Z,50.10
2022-08-22T19:14:21.609Z,49.90
2022-08-22T19:18:08.342Z,49.90
2022-08-22T19:21:46.544Z,50.30
2022-08-22T19:25:21.477Z,50.20
2022-08-22T19:28:35.652Z,50.00
2022-08-22T19:31:50.789Z,50.40
2022-08-22T19:35:21.635Z,50.20
2022-08-22T19:38:56.630Z,50.90
2022-08-22T19:42:01.138Z,51.00
2022-08-22T19:45:21.943Z,50.60
2022-08-22T19:48:31.457Z,51.10
2022-08-22T19:51:35.473Z,51.10
2022-08-22T19:54:48.206Z,51.30
2022-08-22T19:58:07.023Z,51.30
2022-08-22T20:01:49.657Z,51.50
2022-08-22T20:05:08.832Z,52.30
2022-08-22T20:08:37.507Z,52.20
2022-08-22T20:11:53.766Z,52.10
2022-08-22T20:15:17.436Z,52.20
2022-08-22T20:19:06.674Z,52.50
2022-08-22T20:22:17.348Z,52.60
2022-08-22T20:25:42.592Z,51.90
2022-08-22T20:28:52.378Z,52.00
2022-08-22T20:31:58.737Z,50.80
2022-08-22T20:35:06.223Z,51.90
2022-08-22T20:38:14.249Z,52.10
2022-08-22T20:41:24.965Z,52.10
2022-08-22T20:44:33.432Z,52.60
2022-08-22T20:47:40.788Z,52.30
2022-08-22T20:50:46.508Z,53.70
2022-08-22T20:53:54.731Z,52.60
2022-08-22T20:57:01.428Z,53.00
2022-08-22T21:00:12.219Z,53.10
2022-08-22T21:03:33.590Z,53.60
2022-08-22T21:06:39.160Z,53.90
2022-08-22T21:09:59.973Z,53.90
2022-08-22T21:13:11.191Z,53.90
2022-08-22T21:16:18.818Z,53.70
2022-08-22T21:19:28.465Z,54.30
2022-08-22T21:22:34.424Z,54.70
2022-08-22T21:25:57.235Z,54.50
2022-08-22T21:29:05.430Z,54.90
2022-08-22T21:32:25.770Z,54.40
2022-08-22T21:35:32.976Z,53.60
2022-08-22T21:38:39.333Z,54.80
2022-08-22T21:42:05.073Z,55.50
2022-08-22T21:45:14.182Z,55.00
2022-08-22T21:48:40.933Z,55.40
2022-08-22T21:51:46.867Z,56.40
2022-08-22T21:54:51.661Z,55.60
2022-08-22T21:58:10.593Z,56.00
2022-08-22T22:01:31.636Z,56.80
2022-08-22T22:04:35.408Z,57.30
2022-08-22T22:07:41.549Z,55.20
2022-08-22T22:10:49.099Z,56.60
2022-08-22T22:13:52.391Z,58.00
2022-08-22T22:16:55.994Z,57.30
2022-08-22T22:19:59.279Z,57.30
2022-08-22T22:23:02.474Z,57.70
2022-08-22T22:26:07.616Z,57.80
2022-08-22T22:29:10.841Z,58.00
2022-08-22T22:32:15.101Z,59.10
2022-08-22T22:35:19.163Z,58.30
2022-08-22T22:38:24.446Z,58.70
2022-08-22T22:41:29.009Z,59.90
2022-08-22T22:44:32.477Z,59.00
2022-08-22T22:47:36.423Z,59.00
2022-08-22T22:50:40.973Z,59.20
2022-08-22T22:53:45.499Z,59.90
2022-08-22T22:56:50.296Z,59.80
2022-08-22T22:59:53.606Z,60.10
2022-08-22T23:02:56.781Z,59.90
2022-08-22T23:05:59.977Z,59.90
2022-08-22T23:09:03.216Z,60.00
2022-08-22T23:12:09.034Z,60.20
2022-08-22T23:15:13.260Z,60.00
2022-08-22T23:18:16.559Z,60.50
2022-08-22T23:21:28.456Z,60.50
2022-08-22T23:24:31.943Z,60.80
2022-08-22T23:27:36.612Z,59.70
2022-08-22T23:30:39.792Z,61.10
2022-08-22T23:33:44.307Z,61.00
2022-08-22T23:36:48.818Z,61.20
2022-08-22T23:39:52.406Z,61.40
2022-08-22T23:42:59.179Z,61.30
2022-08-22T23:46:03.218Z,61.70
2022-08-22T23:49:07.840Z,61.60
2022-08-22T23:52:13.640Z,62.00
2022-08-22T23:55:17.104Z,63.40
2022-08-22T23:58:21.858Z,62.30
